Detroit, MI

7:28 PM EDT on July 29, 2016 (GMT -0400)
Detroit Metro Wayne County | | Change Station

Elev 663 ft 42.23 °N, 83.33 °W | Updated 35 minutes ago

Overcast
Overcast
78 °F
Feels Like 78 °F
N
10
Wind Variable Wind from NE

Today
High -- | Low -- °F
--% Chance of Precip.
Yesterday
High -- | Low -- °F
Precip. -- in
Pressure 29.94 in
Visibility 8.0 miles
Clouds Few 6000 ft
Mostly Cloudy 12000 ft
Overcast 18000 ft
Dew Point 64 °F
Humidity 62%
Rainfall 0.00 in
Snow Depth Not available.
6:23 AM 8:55 PM
Waning Crescent, 18% visible
METAR KDTW 292253Z 05009KT 8SM FEW060 BKN120 OVC180 26/18 A2995 RMK AO2 SLP137 T02560178
Pressure 29.94 in
Visibility 8.0 miles
Clouds Few 6000 ft
Mostly Cloudy 12000 ft
Overcast 18000 ft
Dew Point 64 °F
Humidity 62%
Rainfall 0.00 in
Snow Depth Not available.
6:23 AM 8:55 PM
Waning Crescent, 18% visible
METAR KDTW 292253Z 05009KT 8SM FEW060 BKN120 OVC180 26/18 A2995 RMK AO2 SLP137 T02560178

10-Day Weather Forecast

Almanac

Astronomy

Jul. 29, 2016 Rise Set
Actual Time
Civil Twilight
Nautical Twilight
Astronomical Twilight
Moon
Length of Visible Light
Length of Day
Tomorrow will be .
, % of the Moon is Illuminated

Today's Extremes

State Highs State Lows

Community

WunderPhotos

Upload Photos

1,928,439 photos uploaded!

WunderBlog® & News

Nearby

Air Quality

  Air Quality AQ Index Pollutant
Not available.

Snow Depth

Station Depth Elevation

Earthquake Activity

City Distance Mag. Time & Date
Minimum magnitude displayed is 2.5.

Coastal Water Temperatures

Place Temperature

Stations

Nearby Weather Stations

Station Location Temp. Windchill Dew Point Humidity Wind Precip. Elev Updated Type
                   

Watches & Warnings

There are currently no watches in effect.